createdAt,value
2017-07-14T00:00:14.873Z,16.89
2017-07-14T00:00:42.802Z,16.87
2017-07-14T00:01:10.761Z,16.86
2017-07-14T00:01:38.874Z,16.77
2017-07-14T00:02:06.910Z,16.83
2017-07-14T00:02:34.933Z,16.77
2017-07-14T00:03:03.822Z,16.86
2017-07-14T00:03:31.847Z,16.8
2017-07-14T00:03:59.918Z,16.68
2017-07-14T00:04:27.949Z,16.69
2017-07-14T00:04:56.116Z,16.76
2017-07-14T00:05:24.205Z,16.72
2017-07-14T00:05:52.250Z,16.69
2017-07-14T00:06:20.226Z,16.72
2017-07-14T00:06:48.152Z,16.76
2017-07-14T00:07:16.016Z,16.68
2017-07-14T00:07:44.120Z,16.59
2017-07-14T00:08:12.272Z,16.61
2017-07-14T00:08:40.379Z,16.61
2017-07-14T00:09:08.086Z,16.57
2017-07-14T00:09:35.907Z,16.68
2017-07-14T00:10:03.931Z,16.59
2017-07-14T00:10:32.017Z,16.59
2017-07-14T00:11:00.149Z,16.64
2017-07-14T00:11:28.181Z,16.59
2017-07-14T00:11:56.262Z,16.59
2017-07-14T00:12:24.399Z,16.58
2017-07-14T00:12:52.420Z,16.62
2017-07-14T00:13:20.366Z,16.57
2017-07-14T00:13:48.199Z,16.68
2017-07-14T00:14:16.313Z,16.66
2017-07-14T00:14:44.330Z,16.62
2017-07-14T00:15:12.366Z,16.57
2017-07-14T00:15:40.405Z,16.62
2017-07-14T00:16:08.585Z,16.62
2017-07-14T00:16:36.698Z,16.65
2017-07-14T00:17:04.758Z,16.65
2017-07-14T00:17:32.780Z,16.62
2017-07-14T00:18:00.696Z,16.66
2017-07-14T00:18:28.647Z,16.65
2017-07-14T00:18:56.767Z,16.58
2017-07-14T00:19:24.895Z,16.54
2017-07-14T00:19:53.003Z,16.66
2017-07-14T00:20:21.081Z,16.59
2017-07-14T00:20:49.209Z,16.58
2017-07-14T00:21:17.132Z,16.59
2017-07-14T00:21:45.132Z,16.64
2017-07-14T00:22:13.160Z,16.5
2017-07-14T00:22:50.757Z,16.58
2017-07-14T00:23:18.808Z,16.49
2017-07-14T00:23:46.736Z,16.47
2017-07-14T00:24:14.743Z,16.57
2017-07-14T00:24:42.753Z,16.55
2017-07-14T00:25:10.878Z,16.5
2017-07-14T00:25:38.919Z,16.55
2017-07-14T00:26:07.037Z,16.59
2017-07-14T00:26:35.080Z,16.64
2017-07-14T00:27:03.082Z,16.61
2017-07-14T00:27:31.203Z,16.58
2017-07-14T00:27:59.142Z,16.68
2017-07-14T00:28:27.028Z,16.69
2017-07-14T00:28:54.942Z,16.68
2017-07-14T00:29:22.962Z,16.73
2017-07-14T00:29:50.888Z,16.74
2017-07-14T00:30:18.794Z,16.76
2017-07-14T00:30:46.909Z,16.79
2017-07-14T00:31:15.035Z,16.66
2017-07-14T00:31:43.182Z,16.83
2017-07-14T00:32:11.308Z,16.83
2017-07-14T00:32:39.144Z,16.83
2017-07-14T00:33:07.546Z,16.86
2017-07-14T00:33:35.571Z,16.94
2017-07-14T00:34:03.551Z,16.84
2017-07-14T00:34:31.663Z,16.87
2017-07-14T00:35:00.440Z,16.84
2017-07-14T00:35:28.364Z,16.89
2017-07-14T00:35:56.269Z,16.83
2017-07-14T00:36:24.169Z,16.83
2017-07-14T00:36:52.301Z,16.83
2017-07-14T00:37:20.225Z,16.91
2017-07-14T00:37:48.143Z,16.86
2017-07-14T00:38:16.067Z,16.87
2017-07-14T00:38:44.112Z,16.89
2017-07-14T00:39:12.265Z,16.92
2017-07-14T00:39:40.264Z,16.87
2017-07-14T00:40:08.188Z,16.89
2017-07-14T00:40:36.312Z,16.86
2017-07-14T00:41:04.455Z,16.86
2017-07-14T00:41:32.589Z,16.84
2017-07-14T00:42:00.718Z,16.87
2017-07-14T00:42:28.647Z,16.91
2017-07-14T00:42:56.647Z,16.89
2017-07-14T00:43:24.656Z,16.83
2017-07-14T00:43:52.595Z,16.91
2017-07-14T00:44:20.622Z,16.86
2017-07-14T00:44:48.563Z,16.87
2017-07-14T00:45:16.711Z,16.82
2017-07-14T00:45:44.672Z,16.87
2017-07-14T00:46:12.684Z,16.91
2017-07-14T00:46:40.610Z,16.8
2017-07-14T00:47:08.661Z,16.82
2017-07-14T00:47:36.797Z,16.84
2017-07-14T00:48:04.813Z,16.86
2017-07-14T00:48:32.846Z,16.87
2017-07-14T00:49:00.680Z,16.83
2017-07-14T00:49:28.769Z,16.91
2017-07-14T00:49:56.824Z,16.87
2017-07-14T00:50:24.871Z,16.97
2017-07-14T00:50:52.932Z,16.95
2017-07-14T00:51:20.928Z,16.94
2017-07-14T00:51:49.072Z,16.92
2017-07-14T00:52:17.000Z,17.02
2017-07-14T00:52:45.648Z,16.98
2017-07-14T00:53:13.591Z,17.12
2017-07-14T00:53:41.483Z,17.05
2017-07-14T00:54:09.410Z,17.05
2017-07-14T00:54:37.465Z,17.01
2017-07-14T00:55:05.580Z,17.02
2017-07-14T00:55:33.532Z,17.02
2017-07-14T00:56:01.608Z,17.05
2017-07-14T00:56:29.640Z,17.14
2017-07-14T00:56:57.661Z,17.14
2017-07-14T00:57:25.595Z,17.14
2017-07-14T00:57:53.516Z,17.14
2017-07-14T00:58:21.531Z,17.17
2017-07-14T00:58:49.435Z,17.12
2017-07-14T00:59:17.456Z,17.1
2017-07-14T00:59:45.566Z,17.19
2017-07-14T01:00:13.492Z,17.14
2017-07-14T01:00:41.520Z,17.14
2017-07-14T01:01:09.640Z,17.2
2017-07-14T01:01:37.713Z,17.17
2017-07-14T01:02:05.741Z,17.16
2017-07-14T01:02:33.879Z,17.12
2017-07-14T01:03:01.801Z,17.14
2017-07-14T01:03:29.970Z,17.13
2017-07-14T01:03:57.915Z,17.14
2017-07-14T01:04:25.841Z,17.14
2017-07-14T01:04:53.766Z,17.17
2017-07-14T01:05:21.679Z,17.16
2017-07-14T01:05:49.493Z,17.17
2017-07-14T01:06:17.437Z,17.17
2017-07-14T01:06:45.430Z,17.2
2017-07-14T01:07:13.747Z,17.24
2017-07-14T01:07:41.783Z,17.2
2017-07-14T01:08:09.816Z,17.2
2017-07-14T01:08:37.868Z,17.2
2017-07-14T01:09:05.807Z,17.3
2017-07-14T01:09:33.725Z,17.23
2017-07-14T01:10:01.657Z,17.28
2017-07-14T01:10:29.687Z,17.19
2017-07-14T01:10:57.599Z,17.19
2017-07-14T01:11:25.507Z,17.19
2017-07-14T01:11:53.661Z,17.27
2017-07-14T01:12:21.694Z,17.2
2017-07-14T01:12:49.619Z,17.16
2017-07-14T01:13:17.728Z,17.17
2017-07-14T01:13:45.764Z,17.17
2017-07-14T01:14:13.886Z,17.13
2017-07-14T01:14:42.008Z,17.14
2017-07-14T01:15:09.951Z,17.12
2017-07-14T01:15:37.957Z,17.04
2017-07-14T01:16:06.005Z,17.02
2017-07-14T01:16:34.147Z,16.99
2017-07-14T01:17:02.277Z,17.04
2017-07-14T01:17:29.995Z,17.01
2017-07-14T01:17:57.892Z,17.12
2017-07-14T01:18:26.014Z,17.01
2017-07-14T01:18:54.122Z,16.98
2017-07-14T01:19:22.217Z,16.87
2017-07-14T01:19:50.337Z,16.94
2017-07-14T01:20:18.479Z,16.87
2017-07-14T01:20:46.582Z,16.91
2017-07-14T01:21:14.700Z,16.86
2017-07-14T01:21:42.740Z,16.84
2017-07-14T01:22:10.753Z,16.87
2017-07-14T01:22:38.474Z,16.91
2017-07-14T01:23:07.222Z,16.92
2017-07-14T01:23:35.176Z,16.92
2017-07-14T01:24:03.005Z,16.86
2017-07-14T01:24:30.826Z,16.92
2017-07-14T01:24:58.945Z,16.86
2017-07-14T01:25:26.761Z,16.86
2017-07-14T01:25:54.775Z,16.82
2017-07-14T01:26:22.819Z,16.77
2017-07-14T01:26:50.852Z,16.76
2017-07-14T01:27:18.964Z,16.74
2017-07-14T01:27:47.147Z,16.74
2017-07-14T01:28:15.494Z,16.72
2017-07-14T01:28:43.628Z,16.72
2017-07-14T01:29:11.630Z,16.66
2017-07-14T01:29:39.770Z,16.73
2017-07-14T01:30:07.813Z,16.66
2017-07-14T01:30:35.830Z,16.68
2017-07-14T01:31:03.758Z,16.66
2017-07-14T01:31:31.660Z,16.72
2017-07-14T01:31:59.674Z,16.73
2017-07-14T01:32:27.717Z,16.68
2017-07-14T01:32:55.745Z,16.68
2017-07-14T01:33:23.505Z,16.59
2017-07-14T01:33:51.511Z,16.65
2017-07-14T01:34:19.422Z,16.62
2017-07-14T01:34:47.427Z,16.58
2017-07-14T01:35:15.335Z,16.69
2017-07-14T01:35:43.363Z,16.62
2017-07-14T01:36:11.377Z,16.72
2017-07-14T01:36:39.304Z,16.68
2017-07-14T01:37:07.251Z,16.68
2017-07-14T01:37:35.277Z,16.74
2017-07-14T01:38:03.310Z,16.74
2017-07-14T01:38:31.254Z,16.79
2017-07-14T01:38:59.185Z,16.76
2017-07-14T01:39:27.320Z,16.86
2017-07-14T01:39:55.438Z,16.76
2017-07-14T01:40:23.489Z,16.84
2017-07-14T01:40:51.607Z,16.83
2017-07-14T01:41:19.622Z,16.86
2017-07-14T01:41:47.519Z,16.87
2017-07-14T01:42:15.551Z,16.89
2017-07-14T01:42:43.476Z,16.89
2017-07-14T01:43:11.398Z,16.84
2017-07-14T01:43:39.424Z,16.84
2017-07-14T01:44:07.469Z,16.87
2017-07-14T01:44:35.509Z,16.82
2017-07-14T01:45:03.622Z,16.87
2017-07-14T01:45:31.635Z,16.83
2017-07-14T01:45:59.801Z,16.86
2017-07-14T01:46:27.833Z,16.87
2017-07-14T01:46:55.941Z,16.89
2017-07-14T01:47:23.856Z,16.92
2017-07-14T01:47:51.876Z,16.86
2017-07-14T01:48:19.909Z,16.86
2017-07-14T01:48:48.035Z,16.89
2017-07-14T01:49:16.053Z,16.8
2017-07-14T01:49:46.236Z,16.86
2017-07-14T01:50:15.247Z,16.79
2017-07-14T01:50:45.686Z,16.79
2017-07-14T01:51:14.348Z,16.8
2017-07-14T01:51:42.809Z,16.77
2017-07-14T01:52:10.762Z,16.74
2017-07-14T01:52:38.810Z,16.76
2017-07-14T01:53:08.656Z,16.74
2017-07-14T01:53:39.305Z,16.76
2017-07-14T01:54:08.630Z,16.79
2017-07-14T01:54:37.373Z,16.73
2017-07-14T01:55:05.763Z,16.79
2017-07-14T01:55:33.861Z,16.77
2017-07-14T01:56:01.821Z,16.79
2017-07-14T01:56:29.967Z,16.77
2017-07-14T01:56:57.876Z,16.69
2017-07-14T01:57:25.692Z,16.74
2017-07-14T01:57:53.818Z,16.69
2017-07-14T01:58:21.860Z,16.68
2017-07-14T01:58:49.985Z,16.64
2017-07-14T01:59:17.993Z,16.65
2017-07-14T01:59:46.139Z,16.65
2017-07-14T02:00:14.080Z,16.66
2017-07-14T02:00:42.213Z,16.58
2017-07-14T02:01:10.235Z,16.65
2017-07-14T02:01:38.184Z,16.61
2017-07-14T02:02:06.109Z,16.64
2017-07-14T02:02:34.035Z,16.64
2017-07-14T02:03:01.967Z,16.64
2017-07-14T02:03:30.117Z,16.66
2017-07-14T02:03:57.828Z,16.62
2017-07-14T02:04:25.770Z,16.66
2017-07-14T02:04:53.790Z,16.65
2017-07-14T02:05:21.580Z,16.72
2017-07-14T02:05:49.505Z,16.68
2017-07-14T02:06:17.524Z,16.66
2017-07-14T02:06:45.447Z,16.66
2017-07-14T02:07:13.435Z,16.73
2017-07-14T02:07:41.432Z,16.66
2017-07-14T02:08:09.563Z,16.62
2017-07-14T02:08:37.489Z,16.66
2017-07-14T02:09:05.508Z,16.59
2017-07-14T02:09:33.438Z,16.59
2017-07-14T02:10:01.539Z,16.58
2017-07-14T02:10:29.577Z,16.59
2017-07-14T02:10:57.595Z,16.66
2017-07-14T02:11:25.601Z,16.62
2017-07-14T02:11:53.623Z,16.59
2017-07-14T02:12:21.768Z,16.49
2017-07-14T02:12:49.677Z,16.58
2017-07-14T02:13:17.799Z,16.59
2017-07-14T02:13:45.834Z,16.5
2017-07-14T02:14:13.731Z,16.54
2017-07-14T02:14:41.872Z,16.65
2017-07-14T02:15:09.885Z,16.61
2017-07-14T02:15:38.015Z,16.61
2017-07-14T02:16:06.046Z,16.57
2017-07-14T02:16:34.061Z,16.62
2017-07-14T02:17:01.794Z,16.64
2017-07-14T02:17:29.747Z,16.59
2017-07-14T02:17:57.773Z,16.57
2017-07-14T02:18:25.803Z,16.57
2017-07-14T02:18:53.739Z,16.51
2017-07-14T02:19:21.754Z,16.59
2017-07-14T02:19:49.690Z,16.51
2017-07-14T02:20:17.602Z,16.58
2017-07-14T02:20:45.757Z,16.58
2017-07-14T02:21:13.664Z,16.66
2017-07-14T02:21:41.802Z,16.66
2017-07-14T02:22:09.923Z,16.65
2017-07-14T02:22:37.741Z,16.72
2017-07-14T02:23:05.748Z,16.74
2017-07-14T02:23:34.102Z,16.68
2017-07-14T02:24:02.031Z,16.74
2017-07-14T02:24:30.223Z,16.73
2017-07-14T02:24:58.246Z,16.68
2017-07-14T02:25:26.172Z,16.73
2017-07-14T02:25:54.184Z,16.8
2017-07-14T02:26:22.311Z,16.72
2017-07-14T02:26:50.152Z,16.72
2017-07-14T02:27:18.252Z,16.72
2017-07-14T02:27:46.283Z,16.72
2017-07-14T02:28:14.414Z,16.69
2017-07-14T02:28:42.615Z,16.66
2017-07-14T02:29:10.630Z,16.72
2017-07-14T02:29:38.636Z,16.73
2017-07-14T02:30:06.458Z,16.66
2017-07-14T02:30:34.295Z,16.61
2017-07-14T02:31:02.225Z,16.66
2017-07-14T02:31:30.238Z,16.61
2017-07-14T02:31:58.262Z,16.62
2017-07-14T02:32:26.291Z,16.62
2017-07-14T02:32:54.201Z,16.57
2017-07-14T02:33:22.028Z,16.68
2017-07-14T02:33:49.955Z,16.57
2017-07-14T02:34:18.074Z,16.58
2017-07-14T02:34:45.875Z,16.59
2017-07-14T02:35:13.905Z,16.55
2017-07-14T02:35:41.796Z,16.65
2017-07-14T02:36:09.938Z,16.61
2017-07-14T02:36:37.868Z,16.57
2017-07-14T02:37:05.991Z,16.51
2017-07-14T02:37:33.997Z,16.65
2017-07-14T02:38:02.122Z,16.58
2017-07-14T02:38:30.235Z,16.61
2017-07-14T02:38:58.471Z,16.5
2017-07-14T02:39:26.396Z,16.51
2017-07-14T02:39:54.495Z,16.65
2017-07-14T02:40:22.433Z,16.57
2017-07-14T02:40:50.476Z,16.59
2017-07-14T02:41:18.485Z,16.55
2017-07-14T02:41:46.536Z,16.59
2017-07-14T02:42:14.547Z,16.59
2017-07-14T02:42:42.453Z,16.62
2017-07-14T02:43:10.469Z,16.64
2017-07-14T02:43:38.388Z,16.66
2017-07-14T02:44:06.517Z,16.62
2017-07-14T02:44:34.406Z,16.61
2017-07-14T02:45:02.328Z,16.68
2017-07-14T02:45:30.476Z,16.68
2017-07-14T02:45:58.616Z,16.59
2017-07-14T02:46:26.516Z,16.59
2017-07-14T02:46:54.559Z,16.59
2017-07-14T02:47:22.576Z,16.58
2017-07-14T02:47:50.589Z,16.62
2017-07-14T02:48:18.644Z,16.58
2017-07-14T02:48:46.770Z,16.49
2017-07-14T02:49:14.509Z,16.54
2017-07-14T02:49:42.649Z,16.57
2017-07-14T02:50:10.561Z,16.57
2017-07-14T02:50:38.587Z,16.55
2017-07-14T02:51:06.641Z,16.57
2017-07-14T02:51:34.781Z,16.59
2017-07-14T02:52:02.911Z,16.57
2017-07-14T02:52:30.931Z,16.58
2017-07-14T02:52:58.968Z,16.55
2017-07-14T02:53:26.887Z,16.54
2017-07-14T02:53:55.337Z,16.62
2017-07-14T02:54:23.379Z,16.57
2017-07-14T02:54:51.480Z,16.47
2017-07-14T02:55:19.486Z,16.51
2017-07-14T02:55:47.534Z,16.65
2017-07-14T02:56:15.375Z,16.61
2017-07-14T02:56:43.506Z,16.61
2017-07-14T02:57:11.623Z,16.5
2017-07-14T02:57:39.724Z,16.58
2017-07-14T02:58:07.828Z,16.55
2017-07-14T02:58:35.742Z,16.57
2017-07-14T02:59:03.977Z,16.49
2017-07-14T02:59:32.100Z,16.49
2017-07-14T03:00:00.214Z,16.51
2017-07-14T03:00:28.337Z,16.57
2017-07-14T03:00:56.262Z,16.55
2017-07-14T03:01:24.195Z,16.49
2017-07-14T03:01:52.234Z,16.55
2017-07-14T03:02:20.167Z,16.43
2017-07-14T03:02:48.298Z,16.58
2017-07-14T03:03:16.105Z,16.55
2017-07-14T03:03:44.225Z,16.49
2017-07-14T03:04:12.394Z,16.51
2017-07-14T03:04:40.304Z,16.5
2017-07-14T03:05:08.208Z,16.55
2017-07-14T03:05:36.342Z,16.58
2017-07-14T03:06:04.381Z,16.41
2017-07-14T03:06:32.474Z,16.44
2017-07-14T03:07:00.618Z,16.29
2017-07-14T03:07:28.607Z,16.31
2017-07-14T03:07:56.739Z,16.31
2017-07-14T03:08:24.864Z,16.34
2017-07-14T03:08:52.881Z,16.32
2017-07-14T03:09:20.988Z,16.26
2017-07-14T03:09:48.995Z,16.28
2017-07-14T03:10:17.136Z,16.26
2017-07-14T03:10:45.158Z,16.18
2017-07-14T03:11:13.321Z,16.21
2017-07-14T03:11:41.329Z,16.21
2017-07-14T03:12:09.261Z,16.22
2017-07-14T03:12:37.232Z,16.13
2017-07-14T03:13:05.211Z,16.25
2017-07-14T03:13:33.238Z,16.18
2017-07-14T03:14:00.967Z,16.25
2017-07-14T03:14:28.972Z,16.29
2017-07-14T03:14:56.996Z,16.25
2017-07-14T03:15:24.928Z,16.22
2017-07-14T03:15:52.976Z,16.22
2017-07-14T03:16:20.820Z,16.13
2017-07-14T03:16:48.862Z,16.17
2017-07-14T03:17:16.957Z,16.24
2017-07-14T03:17:44.882Z,16.18
2017-07-14T03:18:12.718Z,16.22
2017-07-14T03:18:40.805Z,16.22
2017-07-14T03:19:08.834Z,16.25
2017-07-14T03:19:36.779Z,16.25
2017-07-14T03:20:04.928Z,16.21
2017-07-14T03:20:32.766Z,16.18
2017-07-14T03:21:00.778Z,16.24
2017-07-14T03:21:28.892Z,16.17
2017-07-14T03:21:57.017Z,16.28
2017-07-14T03:22:25.037Z,16.28
2017-07-14T03:22:52.897Z,16.22
2017-07-14T03:23:20.792Z,16.24
2017-07-14T03:23:49.241Z,16.32
2017-07-14T03:24:17.251Z,16.26
2017-07-14T03:24:45.377Z,16.22
2017-07-14T03:25:13.525Z,16.29
2017-07-14T03:25:41.562Z,16.34
2017-07-14T03:26:09.483Z,16.32
2017-07-14T03:26:37.414Z,16.26
2017-07-14T03:27:05.530Z,16.31
2017-07-14T03:27:33.535Z,16.28
2017-07-14T03:28:01.585Z,16.31
2017-07-14T03:28:29.590Z,16.29
2017-07-14T03:28:57.731Z,16.32
2017-07-14T03:29:25.674Z,16.29
2017-07-14T03:29:53.614Z,16.46
2017-07-14T03:30:21.749Z,16.44
2017-07-14T03:30:49.495Z,16.43
2017-07-14T03:31:17.524Z,16.47
2017-07-14T03:31:45.459Z,16.55
2017-07-14T03:32:13.268Z,16.55
2017-07-14T03:32:41.391Z,16.47
2017-07-14T03:33:09.244Z,16.57
2017-07-14T03:33:37.067Z,16.58
2017-07-14T03:34:04.784Z,16.61
2017-07-14T03:34:32.533Z,16.61
2017-07-14T03:35:00.672Z,16.57
2017-07-14T03:35:28.610Z,16.49
2017-07-14T03:35:56.639Z,16.57
2017-07-14T03:36:24.660Z,16.59
2017-07-14T03:36:52.774Z,16.55
2017-07-14T03:37:20.932Z,16.64
2017-07-14T03:37:48.852Z,16.66
2017-07-14T03:38:16.901Z,16.62
2017-07-14T03:38:44.943Z,16.73
2017-07-14T03:39:12.992Z,16.58
2017-07-14T03:39:41.107Z,16.62
2017-07-14T03:40:09.033Z,16.59
2017-07-14T03:40:37.065Z,16.58
2017-07-14T03:41:04.969Z,16.57
2017-07-14T03:41:32.757Z,16.59
2017-07-14T03:42:00.781Z,16.59
2017-07-14T03:42:28.905Z,16.59
2017-07-14T03:42:57.027Z,16.61
2017-07-14T03:43:25.167Z,16.59
2017-07-14T03:43:53.298Z,16.59
2017-07-14T03:44:21.215Z,16.57
2017-07-14T03:44:49.353Z,16.64
2017-07-14T03:45:17.272Z,16.61
2017-07-14T03:45:45.281Z,16.61
2017-07-14T03:46:13.203Z,16.61
2017-07-14T03:46:41.227Z,16.55
2017-07-14T03:47:09.342Z,16.59
2017-07-14T03:47:37.448Z,16.59
2017-07-14T03:48:05.464Z,16.59
2017-07-14T03:48:33.290Z,16.58
2017-07-14T03:49:01.423Z,16.58
2017-07-14T03:49:29.544Z,16.61
2017-07-14T03:49:57.379Z,16.61
2017-07-14T03:50:25.417Z,16.61
2017-07-14T03:50:53.543Z,16.49
2017-07-14T03:51:21.457Z,16.57
2017-07-14T03:51:49.389Z,16.51
2017-07-14T03:52:17.412Z,16.59
2017-07-14T03:52:45.316Z,16.5
2017-07-14T03:53:13.336Z,16.57
2017-07-14T03:53:41.382Z,16.54
2017-07-14T03:54:10.054Z,16.57
2017-07-14T03:54:37.978Z,16.58
2017-07-14T03:55:06.006Z,16.5
2017-07-14T03:55:34.155Z,16.54
2017-07-14T03:56:02.292Z,16.54
2017-07-14T03:56:30.438Z,16.55
2017-07-14T03:56:58.376Z,16.5
2017-07-14T03:57:26.404Z,16.5
2017-07-14T03:57:54.329Z,16.5
2017-07-14T03:58:22.347Z,16.46
2017-07-14T03:58:50.487Z,16.41
2017-07-14T03:59:18.828Z,16.46
2017-07-14T03:59:46.653Z,16.47
2017-07-14T04:00:14.572Z,16.44
2017-07-14T04:00:42.592Z,16.49
2017-07-14T04:01:10.630Z,16.43
2017-07-14T04:01:38.666Z,16.44
2017-07-14T04:02:06.670Z,16.44
2017-07-14T04:02:34.474Z,16.44
2017-07-14T04:03:02.588Z,16.44
2017-07-14T04:03:30.612Z,16.44
2017-07-14T04:03:58.726Z,16.34
2017-07-14T04:04:26.866Z,16.44
2017-07-14T04:04:54.995Z,16.41
2017-07-14T04:05:23.118Z,16.44
2017-07-14T04:05:51.129Z,16.39
2017-07-14T04:06:19.170Z,16.4
2017-07-14T04:06:47.216Z,16.44
2017-07-14T04:07:15.259Z,16.49
2017-07-14T04:07:43.268Z,16.47
2017-07-14T04:08:11.316Z,16.29
2017-07-14T04:08:39.409Z,16.29
2017-07-14T04:09:07.540Z,16.36
2017-07-14T04:09:35.669Z,16.4
2017-07-14T04:10:03.705Z,16.29
2017-07-14T04:10:31.637Z,16.37
2017-07-14T04:10:59.631Z,16.26
2017-07-14T04:11:27.660Z,16.32
2017-07-14T04:11:55.654Z,16.26
2017-07-14T04:12:23.549Z,16.28
2017-07-14T04:12:51.569Z,16.28
2017-07-14T04:13:19.697Z,16.28
2017-07-14T04:13:47.801Z,16.24
2017-07-14T04:14:15.797Z,16.24
2017-07-14T04:14:43.721Z,16.25
2017-07-14T04:15:11.752Z,16.28
2017-07-14T04:15:39.782Z,16.26
2017-07-14T04:16:07.802Z,16.24
2017-07-14T04:16:35.830Z,16.28
2017-07-14T04:17:03.957Z,16.29
2017-07-14T04:17:31.984Z,16.21
2017-07-14T04:18:00.007Z,16.26
2017-07-14T04:18:28.172Z,16.22
2017-07-14T04:18:56.286Z,16.26
2017-07-14T04:19:24.199Z,16.28
2017-07-14T04:19:52.151Z,16.26
2017-07-14T04:20:20.280Z,16.29
2017-07-14T04:20:48.321Z,16.32
2017-07-14T04:21:16.234Z,16.28
2017-07-14T04:21:44.273Z,16.29
2017-07-14T04:22:12.085Z,16.26
2017-07-14T04:22:39.994Z,16.29
2017-07-14T04:23:07.832Z,16.25
2017-07-14T04:23:35.845Z,16.29
2017-07-14T04:24:03.787Z,16.26
2017-07-14T04:24:32.035Z,16.24
2017-07-14T04:25:00.058Z,16.25
2017-07-14T04:25:27.975Z,16.25
2017-07-14T04:25:56.113Z,16.22
2017-07-14T04:26:24.246Z,16.22
2017-07-14T04:26:52.187Z,16.36
2017-07-14T04:27:20.187Z,16.26
2017-07-14T04:27:48.228Z,16.21
2017-07-14T04:28:16.158Z,16.28
2017-07-14T04:28:44.181Z,16.22
2017-07-14T04:29:12.229Z,16.24
2017-07-14T04:29:40.331Z,16.24
2017-07-14T04:30:08.245Z,16.18
2017-07-14T04:30:36.167Z,16.22
2017-07-14T04:31:04.184Z,16.22
2017-07-14T04:31:32.297Z,16.09
2017-07-14T04:32:00.290Z,16.08
2017-07-14T04:32:28.301Z,16.08
2017-07-14T04:32:56.305Z,16.05
2017-07-14T04:33:24.326Z,16.03
2017-07-14T04:33:52.210Z,15.98
2017-07-14T04:34:20.249Z,16.03
2017-07-14T04:34:48.252Z,16.02
2017-07-14T04:35:16.158Z,16
2017-07-14T04:35:44.177Z,16.05
2017-07-14T04:36:12.214Z,15.98
2017-07-14T04:36:40.246Z,15.99
2017-07-14T04:37:08.168Z,16.02
2017-07-14T04:37:36.210Z,16.05
2017-07-14T04:38:04.252Z,16.05
2017-07-14T04:38:32.397Z,16.02
2017-07-14T04:39:00.503Z,15.99
2017-07-14T04:39:28.628Z,16
2017-07-14T04:39:56.615Z,16
2017-07-14T04:40:24.677Z,15.92
2017-07-14T04:40:52.676Z,16.05
2017-07-14T04:41:20.693Z,15.99
2017-07-14T04:41:48.682Z,15.94
2017-07-14T04:42:16.615Z,16.05
2017-07-14T04:42:44.557Z,15.94
2017-07-14T04:43:12.557Z,15.9
2017-07-14T04:43:40.570Z,15.88
2017-07-14T04:44:08.581Z,15.94
2017-07-14T04:44:36.600Z,15.84
2017-07-14T04:45:04.546Z,15.81
2017-07-14T04:45:32.549Z,15.8
2017-07-14T04:46:00.563Z,15.88
2017-07-14T04:46:28.448Z,15.78
2017-07-14T04:46:56.593Z,15.88
2017-07-14T04:47:24.681Z,15.75
2017-07-14T04:47:52.800Z,15.69
2017-07-14T04:48:20.941Z,15.78
2017-07-14T04:48:48.931Z,15.76
2017-07-14T04:49:16.949Z,15.72
2017-07-14T04:49:44.787Z,15.67
2017-07-14T04:50:12.796Z,15.62
2017-07-14T04:50:40.826Z,15.54
2017-07-14T04:51:08.847Z,15.65
2017-07-14T04:51:36.661Z,15.54
2017-07-14T04:52:04.810Z,15.51
2017-07-14T04:52:32.945Z,15.5
2017-07-14T04:53:00.966Z,15.54
2017-07-14T04:53:28.773Z,15.5
2017-07-14T04:53:56.889Z,15.51
2017-07-14T04:54:25.819Z,15.5
2017-07-14T04:54:53.941Z,15.5
2017-07-14T04:55:22.058Z,15.48
2017-07-14T04:55:50.052Z,15.41
2017-07-14T04:56:17.942Z,15.43
2017-07-14T04:56:45.955Z,15.47
2017-07-14T04:57:13.952Z,15.44
2017-07-14T04:57:41.954Z,15.39
2017-07-14T04:58:10.074Z,15.44
2017-07-14T04:58:38.093Z,15.36
2017-07-14T04:59:06.220Z,15.41
2017-07-14T04:59:34.146Z,15.33
2017-07-14T05:00:01.872Z,15.36
2017-07-14T05:00:29.791Z,15.37
2017-07-14T05:00:57.705Z,15.41
2017-07-14T05:01:25.713Z,15.44
2017-07-14T05:01:53.726Z,15.36
2017-07-14T05:02:21.751Z,15.35
2017-07-14T05:02:49.660Z,15.43
2017-07-14T05:03:17.668Z,15.35
2017-07-14T05:03:45.794Z,15.35
2017-07-14T05:04:13.824Z,15.36
2017-07-14T05:04:41.945Z,15.33
2017-07-14T05:05:09.969Z,15.39
2017-07-14T05:05:38.002Z,15.33
2017-07-14T05:06:06.026Z,15.37
2017-07-14T05:06:34.037Z,15.3
2017-07-14T05:07:02.178Z,15.37
2017-07-14T05:07:30.102Z,15.3
2017-07-14T05:07:58.216Z,15.32
2017-07-14T05:08:26.329Z,15.3
2017-07-14T05:08:54.452Z,15.3
2017-07-14T05:09:22.371Z,15.29
2017-07-14T05:09:50.415Z,15.33
2017-07-14T05:10:18.534Z,15.27
2017-07-14T05:10:46.557Z,15.25
2017-07-14T05:11:14.666Z,15.19
2017-07-14T05:11:42.693Z,15.14
2017-07-14T05:12:10.816Z,15.18
2017-07-14T05:12:38.838Z,15.14
2017-07-14T05:13:06.753Z,15.22
2017-07-14T05:13:34.810Z,15.11
2017-07-14T05:14:02.901Z,15.15
2017-07-14T05:14:31.000Z,15.17
2017-07-14T05:14:59.136Z,15.11
2017-07-14T05:15:27.253Z,15.11
2017-07-14T05:15:55.377Z,15.11
2017-07-14T05:16:23.485Z,15.15
2017-07-14T05:16:51.403Z,15.11
2017-07-14T05:17:19.507Z,15.14
2017-07-14T05:17:47.628Z,15.14
2017-07-14T05:18:15.517Z,15.17
2017-07-14T05:18:43.521Z,15.15
2017-07-14T05:19:11.546Z,15.15
2017-07-14T05:19:39.583Z,15.15
2017-07-14T05:20:07.612Z,15.14
2017-07-14T05:20:35.628Z,15.12
2017-07-14T05:21:03.549Z,15.12
2017-07-14T05:21:31.651Z,15.14
2017-07-14T05:21:59.680Z,15.14
2017-07-14T05:22:27.479Z,15.18
2017-07-14T05:22:55.406Z,15.15
2017-07-14T05:23:23.023Z,15.18
2017-07-14T05:23:50.953Z,15.12
2017-07-14T05:24:18.944Z,15.22
2017-07-14T05:24:48.115Z,15.18
2017-07-14T05:25:16.023Z,15.18
2017-07-14T05:25:44.138Z,15.19
2017-07-14T05:26:12.189Z,15.17
2017-07-14T05:26:40.112Z,15.23
2017-07-14T05:27:08.142Z,15.22
2017-07-14T05:27:36.158Z,15.25
2017-07-14T05:28:04.158Z,15.33
2017-07-14T05:28:32.152Z,15.3
2017-07-14T05:29:00.291Z,15.27
2017-07-14T05:29:28.326Z,15.33
2017-07-14T05:29:56.540Z,15.3
2017-07-14T05:30:24.571Z,15.35
2017-07-14T05:30:52.710Z,15.35
2017-07-14T05:31:20.621Z,15.36
2017-07-14T05:31:48.746Z,15.41
2017-07-14T05:32:16.688Z,15.43
2017-07-14T05:32:44.712Z,15.41
2017-07-14T05:33:12.538Z,15.45
2017-07-14T05:33:40.665Z,15.39
2017-07-14T05:34:08.578Z,15.47
2017-07-14T05:34:36.698Z,15.43
2017-07-14T05:35:04.754Z,15.45
2017-07-14T05:35:32.780Z,15.36
2017-07-14T05:36:00.899Z,15.43
2017-07-14T05:36:28.940Z,15.37
2017-07-14T05:36:57.024Z,15.37
2017-07-14T05:37:25.156Z,15.43
2017-07-14T05:37:53.059Z,15.36
2017-07-14T05:38:20.960Z,15.39
2017-07-14T05:38:48.713Z,15.37
2017-07-14T05:39:16.655Z,15.36
2017-07-14T05:39:44.383Z,15.37
2017-07-14T05:40:12.614Z,15.37
2017-07-14T05:40:40.621Z,15.37
2017-07-14T05:41:08.536Z,15.35
2017-07-14T05:41:36.545Z,15.37
2017-07-14T05:42:04.656Z,15.39
2017-07-14T05:42:32.775Z,15.35
2017-07-14T05:43:00.600Z,15.41
2017-07-14T05:43:28.520Z,15.44
2017-07-14T05:43:56.645Z,15.39
2017-07-14T05:44:24.650Z,15.41
2017-07-14T05:44:52.785Z,15.36
2017-07-14T05:45:20.709Z,15.41
2017-07-14T05:45:48.705Z,15.45
2017-07-14T05:46:16.731Z,15.43
2017-07-14T05:46:44.755Z,15.36
2017-07-14T05:47:12.881Z,15.36
2017-07-14T05:47:41.024Z,15.41
2017-07-14T05:48:09.129Z,15.41
2017-07-14T05:48:37.140Z,15.39
2017-07-14T05:49:05.164Z,15.39
2017-07-14T05:49:32.989Z,15.44
2017-07-14T05:50:01.007Z,15.41
2017-07-14T05:50:28.924Z,15.41
2017-07-14T05:50:57.029Z,15.41
2017-07-14T05:51:25.049Z,15.43
2017-07-14T05:51:52.952Z,15.43
2017-07-14T05:52:20.987Z,15.45
2017-07-14T05:52:49.000Z,15.48
2017-07-14T05:53:17.108Z,15.45
2017-07-14T05:53:45.134Z,15.44
2017-07-14T05:54:13.264Z,15.51
2017-07-14T05:54:41.299Z,15.43
2017-07-14T05:55:09.348Z,15.45
2017-07-14T05:55:37.389Z,15.45
2017-07-14T05:56:05.486Z,15.47
2017-07-14T05:56:33.391Z,15.41
2017-07-14T05:57:01.407Z,15.44
2017-07-14T05:57:29.548Z,15.45
2017-07-14T05:57:57.492Z,15.47
2017-07-14T05:58:25.519Z,15.45
2017-07-14T05:58:53.531Z,15.45
2017-07-14T05:59:21.570Z,15.43
2017-07-14T05:59:49.352Z,15.47
2017-07-14T06:00:17.673Z,15.41
2017-07-14T06:00:45.673Z,15.44
2017-07-14T06:01:13.799Z,15.43
2017-07-14T06:01:41.634Z,15.44
2017-07-14T06:02:09.774Z,15.45